Time;durP1;ratioP1;P1;durP2;ratioP2;P2;SDS_P1;SDS_P2;PMS_P1;PMS_P2;Temp;Humidity;BMP_temperature;BMP_pressure;BME280_temperature;BME280_humidity;BME280_pressure;Samples;Min_cycle;Max_cycle;Signal;HPM_P1;HPM_P2
2021/09/13 00:00:00;;;;;;;9.53;8.53;;;;;;;12.86;91.24;101178.94;693916;28;4478;-52
2021/09/13 00:00:21;;;;;;;10.03;9.03;;;;;;;12.84;91.75;101178.06;695469;28;1346;-54
2021/09/13 00:00:42;;;;;;;10.90;9.43;;;;;;;12.81;92.29;101175.44;694814;28;1371;-52
2021/09/13 00:01:03;;;;;;;10.20;8.77;;;;;;;12.80;91.72;101180.72;694956;28;1239;-55
2021/09/13 00:01:23;;;;;;;10.55;8.93;;;;;;;12.78;92.23;101180.72;694728;28;1423;-53
2021/09/13 00:01:45;;;;;;;10.93;9.05;;;;;;;12.81;91.50;101180.69;694554;28;1218;-54
2021/09/13 00:02:05;;;;;;;11.17;9.03;;;;;;;12.82;91.40;101181.56;695722;28;1076;-52
2021/09/13 00:02:29;;;;;;;10.18;8.85;;;;;;;12.82;91.55;101177.19;695531;28;1035;-53
2021/09/13 00:02:49;;;;;;;11.18;8.88;;;;;;;12.86;91.24;101173.69;693992;28;4539;-52
2021/09/13 00:03:10;;;;;;;9.80;8.47;;;;;;;12.90;91.29;101167.53;697844;28;1114;-54
2021/09/13 00:03:30;;;;;;;10.43;8.70;;;;;;;12.89;91.79;101171.03;697487;28;3043;-61
2021/09/13 00:03:51;;;;;;;10.30;8.90;;;;;;;12.89;91.73;101170.13;697020;28;1515;-55
2021/09/13 00:04:12;;;;;;;9.83;8.83;;;;;;;12.87;91.66;101170.16;698121;28;1111;-54
2021/09/13 00:04:33;;;;;;;10.13;8.63;;;;;;;12.88;91.46;101171.91;698315;28;1096;-55
2021/09/13 00:04:54;;;;;;;9.95;8.70;;;;;;;12.87;90.84;101170.16;697603;28;1146;-55
2021/09/13 00:05:14;;;;;;;9.80;8.80;;;;;;;12.88;90.87;101169.28;698124;28;1351;-54
2021/09/13 00:05:35;;;;;;;9.57;8.57;;;;;;;12.90;90.77;101172.78;697145;28;1599;-53
2021/09/13 00:05:59;;;;;;;11.13;8.48;;;;;;;12.90;91.11;101170.16;697475;28;4581;-52
2021/09/13 00:06:19;;;;;;;10.70;8.87;;;;;;;12.89;90.89;101171.03;697234;28;1116;-53
2021/09/13 00:06:39;;;;;;;11.20;8.90;;;;;;;12.91;90.59;101173.66;697500;28;1154;-52
2021/09/13 00:07:00;;;;;;;10.05;8.50;;;;;;;12.90;90.87;101175.41;697736;28;3836;-55
2021/09/13 00:07:21;;;;;;;9.27;8.20;;;;;;;12.91;91.11;101169.25;696967;28;1493;-53
2021/09/13 00:07:41;;;;;;;9.80;8.80;;;;;;;12.91;91.33;101173.66;694896;28;1466;-55
2021/09/13 00:08:01;;;;;;;10.23;9.13;;;;;;;12.87;90.85;101164.91;694946;28;1166;-54
2021/09/13 00:08:22;;;;;;;9.93;8.93;;;;;;;12.87;90.57;101166.66;695295;28;1147;-55
2021/09/13 00:08:42;;;;;;;9.70;8.70;;;;;;;12.84;90.79;101167.56;691944;28;1302;-51
2021/09/13 00:09:03;;;;;;;10.70;8.60;;;;;;;12.77;91.54;101163.22;691830;28;4830;-53
2021/09/13 00:09:23;;;;;;;10.70;9.00;;;;;;;12.73;91.74;101167.63;692900;28;1040;-52
2021/09/13 00:09:44;;;;;;;10.00;9.00;;;;;;;12.70;92.12;101172.03;692285;28;1183;-52
2021/09/13 00:10:07;;;;;;;9.65;8.65;;;;;;;12.67;91.94;101169.38;695196;28;1111;-55
2021/09/13 00:10:30;;;;;;;10.68;9.25;;;;;;;12.65;92.17;101165.91;694656;28;3567;-53
2021/09/13 00:10:51;;;;;;;11.07;9.20;;;;;;;12.59;92.50;101162.44;693613;28;1403;-54
2021/09/13 00:11:13;;;;;;;10.48;9.00;;;;;;;12.53;92.30;101162.50;694184;28;2791;-56
2021/09/13 00:11:35;;;;;;;11.20;9.32;;;;;;;12.49;92.87;101160.75;694436;28;1286;-54
2021/09/13 00:11:56;;;;;;;10.93;9.18;;;;;;;12.50;92.69;101165.13;695213;28;5610;-52
2021/09/13 00:12:17;;;;;;;11.07;9.57;;;;;;;12.51;92.83;101166.84;698301;28;1050;-56
2021/09/13 00:12:38;;;;;;;10.57;9.40;;;;;;;12.50;92.77;101167.75;697943;28;1070;-52
2021/09/13 00:12:59;;;;;;;10.65;9.35;;;;;;;12.50;93.37;101164.25;698228;28;1133;-53
2021/09/13 00:13:20;;;;;;;11.20;9.27;;;;;;;12.51;93.16;101164.22;697323;28;1136;-51
2021/09/13 00:13:42;;;;;;;10.98;9.40;;;;;;;12.52;92.90;101159.88;697143;28;3768;-55
2021/09/13 00:14:03;;;;;;;11.05;9.23;;;;;;;12.55;92.94;101165.09;697203;28;1355;-52
2021/09/13 00:14:24;;;;;;;11.40;9.17;;;;;;;12.54;92.86;101163.34;697421;28;1259;-52
2021/09/13 00:14:46;;;;;;;11.80;9.30;;;;;;;12.55;92.68;101159.84;697590;28;1418;-53
2021/09/13 00:15:08;;;;;;;10.25;9.25;;;;;;;12.57;92.49;101165.94;697320;28;5481;-55
2021/09/13 00:15:29;;;;;;;10.07;9.07;;;;;;;12.55;93.08;101159.84;698254;28;1341;-54
2021/09/13 00:15:50;;;;;;;10.77;9.13;;;;;;;12.54;93.17;101158.97;697657;28;1219;-53
2021/09/13 00:16:11;;;;;;;10.90;9.70;;;;;;;12.54;92.73;101158.97;697721;28;1280;-54
2021/09/13 00:16:33;;;;;;;10.95;9.35;;;;;;;12.54;92.77;101161.59;698310;28;1233;-54
2021/09/13 00:16:53;;;;;;;10.60;9.50;;;;;;;12.54;92.87;101156.34;697091;28;3676;-53
2021/09/13 00:17:16;;;;;;;10.55;9.48;;;;;;;12.54;92.62;101161.59;697419;28;1011;-53
2021/09/13 00:17:36;;;;;;;11.30;9.93;;;;;;;12.52;93.12;101165.97;697185;28;1565;-51
2021/09/13 00:17:57;;;;;;;11.02;9.85;;;;;;;12.52;93.20;101159.88;697069;28;4715;-55
2021/09/13 00:18:18;;;;;;;10.77;9.32;;;;;;;12.50;93.04;101162.50;698033;28;1322;-53
2021/09/13 00:18:39;;;;;;;11.40;9.17;;;;;;;12.52;92.60;101163.34;697573;28;1150;-55
2021/09/13 00:19:00;;;;;;;11.25;9.07;;;;;;;12.55;92.43;101162.47;696858;28;1165;-52
2021/09/13 00:19:22;;;;;;;11.52;9.27;;;;;;;12.57;92.64;101161.59;698540;28;1174;-54
2021/09/13 00:19:46;;;;;;;10.18;9.18;;;;;;;12.58;92.51;101160.69;697415;28;1198;-55
2021/09/13 00:20:08;;;;;;;10.40;9.30;;;;;;;12.60;92.40;101166.81;697521;28;3889;-54
2021/09/13 00:20:28;;;;;;;11.25;9.00;;;;;;;12.63;92.12;101155.44;697972;28;1197;-54
2021/09/13 00:20:49;;;;;;;12.15;9.55;;;;;;;12.62;92.28;101160.69;696917;28;5427;-53
2021/09/13 00:21:10;;;;;;;11.88;10.15;;;;;;;12.55;92.15;101160.72;698201;28;1322;-52
2021/09/13 00:21:31;;;;;;;10.60;9.50;;;;;;;12.52;92.80;101159.88;697790;28;1114;-52
2021/09/13 00:21:53;;;;;;;11.05;9.70;;;;;;;12.50;93.10;101153.75;697698;28;1203;-51
2021/09/13 00:22:14;;;;;;;11.05;9.65;;;;;;;12.50;92.55;101159.88;698044;28;1277;-55
2021/09/13 00:22:35;;;;;;;11.37;9.03;;;;;;;12.55;92.29;101157.22;697847;28;1362;-56
2021/09/13 00:22:55;;;;;;;12.77;9.57;;;;;;;12.55;92.69;101162.47;697540;28;1026;-54
2021/09/13 00:23:16;;;;;;;12.75;9.52;;;;;;;12.53;92.57;101157.25;698158;28;3011;-54
2021/09/13 00:23:36;;;;;;;10.90;9.57;;;;;;;12.54;92.64;101169.44;696808;28;2815;-55
2021/09/13 00:23:56;;;;;;;10.98;9.85;;;;;;;12.52;93.43;101160.72;696407;28;4369;-54
2021/09/13 00:24:17;;;;;;;10.70;9.63;;;;;;;12.49;93.29;101160.75;695028;28;1096;-53
2021/09/13 00:24:38;;;;;;;10.57;9.52;;;;;;;12.47;93.73;101157.25;694345;28;1123;-55
2021/09/13 00:25:00;;;;;;;11.60;9.95;;;;;;;12.49;93.41;101160.75;695213;28;1071;-54
2021/09/13 00:25:20;;;;;;;11.52;9.80;;;;;;;12.51;92.96;101160.75;695117;28;1193;-53
2021/09/13 00:25:41;;;;;;;10.77;9.67;;;;;;;12.45;93.42;101164.28;694575;28;1094;-55
2021/09/13 00:26:03;;;;;;;10.40;9.30;;;;;;;12.47;93.29;101159.00;695128;28;3746;-56
2021/09/13 00:26:24;;;;;;;10.30;9.20;;;;;;;12.45;93.07;101164.28;694952;28;1067;-52
2021/09/13 00:26:45;;;;;;;10.45;9.45;;;;;;;12.47;92.51;101154.63;694900;28;3064;-53
2021/09/13 00:27:06;;;;;;;10.35;9.35;;;;;;;12.55;91.71;101158.09;697103;28;4444;-55
2021/09/13 00:27:27;;;;;;;9.88;8.52;;;;;;;12.63;91.67;101151.94;697704;28;1405;-55
2021/09/13 00:27:49;;;;;;;11.10;8.88;;;;;;;12.60;92.08;101158.94;697623;28;995;-53
2021/09/13 00:28:10;;;;;;;10.97;9.10;;;;;;;12.56;92.76;101158.97;697822;28;1376;-53
2021/09/13 00:28:30;;;;;;;10.60;9.50;;;;;;;12.49;92.86;101155.50;695118;28;1257;-53
2021/09/13 00:28:51;;;;;;;10.52;9.13;;;;;;;12.48;92.41;101153.75;694408;28;1275;-52
2021/09/13 00:29:11;;;;;;;11.03;9.00;;;;;;;12.51;92.08;101153.75;695194;28;1246;-54
2021/09/13 00:29:32;;;;;;;9.80;8.77;;;;;;;12.54;91.79;101153.72;695495;28;1263;-54
2021/09/13 00:29:54;;;;;;;9.82;8.70;;;;;;;12.57;92.35;101161.59;693988;28;4579;-53
2021/09/13 00:30:15;;;;;;;9.88;8.88;;;;;;;12.54;92.68;101158.09;695367;28;1351;-53
2021/09/13 00:30:36;;;;;;;9.40;8.40;;;;;;;12.51;92.22;101156.34;696737;28;1037;-52
2021/09/13 00:30:57;;;;;;;10.52;8.57;;;;;;;12.53;92.10;101157.25;698116;28;938;-54
2021/09/13 00:31:18;;;;;;;11.35;9.05;;;;;;;12.53;92.20;101152.00;698285;28;1102;-52
2021/09/13 00:31:39;;;;;;;9.80;8.90;;;;;;;12.56;92.40;101157.22;698009;28;1197;-55
2021/09/13 00:32:03;;;;;;;10.65;9.30;;;;;;;12.57;92.59;101158.06;697965;28;1201;-55
2021/09/13 00:32:24;;;;;;;10.45;8.95;;;;;;;12.57;92.30;101152.84;694763;28;1051;-52
2021/09/13 00:32:44;;;;;;;9.40;8.18;;;;;;;12.62;91.75;101150.22;694765;28;1319;-54
2021/09/13 00:33:05;;;;;;;9.88;8.60;;;;;;;12.66;91.71;101152.78;693879;28;4406;-51
2021/09/13 00:33:28;;;;;;;10.55;8.65;;;;;;;12.69;91.73;101157.16;694985;28;1130;-54
2021/09/13 00:33:49;;;;;;;10.40;8.70;;;;;;;12.70;90.94;101151.03;695447;28;1398;-52
2021/09/13 00:34:10;;;;;;;9.30;8.32;;;;;;;12.78;90.57;101155.34;697492;28;1642;-54
2021/09/13 00:34:30;;;;;;;9.20;8.20;;;;;;;12.78;90.50;101151.88;697635;28;1083;-55
2021/09/13 00:34:51;;;;;;;9.55;8.57;;;;;;;12.73;90.93;101151.00;696186;28;1160;-56
2021/09/13 00:35:13;;;;;;;9.93;8.63;;;;;;;12.65;91.10;101161.53;696142;28;1415;-54
2021/09/13 00:35:34;;;;;;;9.40;8.38;;;;;;;12.68;90.54;101160.66;696138;28;1197;-52
2021/09/13 00:35:56;;;;;;;9.32;8.30;;;;;;;12.74;90.45;101161.50;694688;28;4563;-51
2021/09/13 00:36:17;;;;;;;10.10;8.15;;;;;;;12.80;89.97;101152.72;698101;28;4385;-55
2021/09/13 00:36:38;;;;;;;10.80;8.10;;;;;;;12.87;89.87;101159.66;695197;28;1252;-55
2021/09/13 00:36:59;;;;;;;9.88;8.15;;;;;;;12.88;89.41;101155.31;697789;28;1509;-56
2021/09/13 00:37:20;;;;;;;9.73;8.43;;;;;;;12.84;89.89;101151.81;697748;28;1767;-55
2021/09/13 00:37:41;;;;;;;9.48;8.48;;;;;;;12.71;90.41;101158.91;697766;28;1054;-57
2021/09/13 00:38:02;;;;;;;9.48;8.43;;;;;;;12.71;90.18;101152.75;697650;28;1213;-53
2021/09/13 00:38:25;;;;;;;10.65;8.63;;;;;;;12.79;89.82;101164.06;698080;28;1208;-57
2021/09/13 00:38:45;;;;;;;9.93;8.93;;;;;;;12.76;90.68;101153.59;697090;28;1399;-53
2021/09/13 00:39:07;;;;;;;9.85;8.90;;;;;;;12.72;90.92;101158.03;697204;28;4394;-52
2021/09/13 00:39:28;;;;;;;10.00;9.00;;;;;;;12.71;90.70;101163.25;697383;28;3518;-52
2021/09/13 00:39:51;;;;;;;10.63;9.20;;;;;;;12.70;90.41;101158.91;694418;28;2528;-53
2021/09/13 00:40:12;;;;;;;9.85;8.85;;;;;;;12.65;90.94;101168.53;692064;28;2012;-55
2021/09/13 00:40:34;;;;;;;10.07;8.32;;;;;;;12.66;90.75;101168.53;691933;28;1218;-55
2021/09/13 00:40:55;;;;;;;9.40;8.40;;;;;;;12.70;90.79;101153.66;692161;28;1352;-55
2021/09/13 00:41:18;;;;;;;10.38;8.65;;;;;;;12.73;90.69;101164.13;692507;28;996;-55
2021/09/13 00:41:38;;;;;;;9.52;8.52;;;;;;;12.73;90.66;101161.50;693800;28;1331;-52
2021/09/13 00:41:59;;;;;;;9.07;8.17;;;;;;;12.77;90.49;101160.59;696052;28;4342;-51
2021/09/13 00:42:20;;;;;;;9.48;8.57;;;;;;;12.81;90.25;101164.06;695578;28;1161;-52
2021/09/13 00:42:42;;;;;;;9.70;8.70;;;;;;;12.75;90.85;101160.63;694146;28;3318;-55
2021/09/13 00:43:03;;;;;;;10.02;8.95;;;;;;;12.75;90.62;101160.63;694780;28;3391;-54
2021/09/13 00:43:25;;;;;;;9.70;8.55;;;;;;;12.76;90.05;101157.09;695330;28;1213;-51
2021/09/13 00:43:48;;;;;;;9.52;8.52;;;;;;;12.75;90.72;101159.72;694412;28;1887;-52
2021/09/13 00:44:09;;;;;;;10.15;9.07;;;;;;;12.72;90.79;101162.38;692329;28;1016;-54
2021/09/13 00:44:30;;;;;;;10.98;9.20;;;;;;;12.71;90.89;101168.50;692479;28;1123;-53
2021/09/13 00:44:50;;;;;;;10.63;8.90;;;;;;;12.67;90.94;101162.41;691506;28;4340;-54
2021/09/13 00:45:11;;;;;;;11.70;9.43;;;;;;;12.64;91.50;101161.53;697529;28;1322;-55
2021/09/13 00:45:31;;;;;;;10.30;9.23;;;;;;;12.64;91.11;101166.78;698138;28;1071;-53
2021/09/13 00:45:52;;;;;;;10.95;8.85;;;;;;;12.70;90.60;101159.75;697471;28;3288;-53
2021/09/13 00:46:12;;;;;;;11.90;8.77;;;;;;;12.69;91.41;101157.16;697426;28;4024;-52
2021/09/13 00:46:33;;;;;;;10.02;8.77;;;;;;;12.67;91.21;101164.16;695117;28;1477;-53
2021/09/13 00:46:55;;;;;;;9.50;8.50;;;;;;;12.73;90.48;101164.13;691585;28;1264;-54
2021/09/13 00:47:16;;;;;;;9.32;8.40;;;;;;;12.73;90.16;101154.50;689003;28;1139;-54
2021/09/13 00:47:36;;;;;;;9.10;7.97;;;;;;;12.75;90.07;101165.88;692339;28;1109;-53
2021/09/13 00:47:57;;;;;;;9.33;8.17;;;;;;;12.79;89.73;101161.47;694820;28;4417;-55
2021/09/13 00:48:17;;;;;;;9.63;8.30;;;;;;;12.86;89.50;101157.03;698071;28;1110;-53
2021/09/13 00:48:37;;;;;;;9.63;8.27;;;;;;;12.86;89.45;101162.28;697871;28;1122;-52
2021/09/13 00:48:58;;;;;;;10.07;8.70;;;;;;;12.81;89.69;101157.09;697446;28;1086;-51
2021/09/13 00:49:18;;;;;;;10.18;8.98;;;;;;;12.78;89.71;101157.13;694444;28;3212;-52
2021/09/13 00:49:39;;;;;;;10.80;8.80;;;;;;;12.77;89.69;101153.59;691989;28;1503;-53
2021/09/13 00:49:59;;;;;;;10.20;8.55;;;;;;;12.76;90.16;101156.22;694888;28;973;-53
2021/09/13 00:50:19;;;;;;;9.87;8.70;;;;;;;12.70;90.28;101164.16;695120;28;1249;-56
2021/09/13 00:50:40;;;;;;;10.45;8.98;;;;;;;12.65;90.99;101163.28;692309;28;1399;-52
2021/09/13 00:51:00;;;;;;;10.07;8.73;;;;;;;12.60;90.74;101158.94;694830;28;5280;-54
2021/09/13 00:51:22;;;;;;;10.73;8.40;;;;;;;12.56;91.04;101157.22;697238;28;1071;-51
2021/09/13 00:51:42;;;;;;;10.82;8.73;;;;;;;12.48;91.30;101159.00;696795;28;1223;-53
2021/09/13 00:52:03;;;;;;;10.40;9.07;;;;;;;12.41;92.12;101157.31;697674;28;1098;-52
2021/09/13 00:52:24;;;;;;;10.50;9.23;;;;;;;12.34;92.36;101159.06;697063;28;3637;-52
2021/09/13 00:52:50;;;;;;;10.43;9.13;;;;;;;12.34;91.80;101164.31;697102;28;3788;-51
2021/09/13 00:53:11;;;;;;;11.82;9.23;;;;;;;12.29;92.79;101155.59;697354;28;1453;-51
2021/09/13 00:53:32;;;;;;;11.25;9.48;;;;;;;12.28;92.65;101161.72;694973;28;1494;-53
2021/09/13 00:53:53;;;;;;;10.90;9.80;;;;;;;12.29;92.37;101163.44;691434;28;4608;-53
2021/09/13 00:54:13;;;;;;;10.90;9.70;;;;;;;12.35;92.42;101163.44;693510;28;1290;-52
2021/09/13 00:54:34;;;;;;;10.07;8.98;;;;;;;12.41;91.93;101162.53;692059;28;1319;-52
2021/09/13 00:54:55;;;;;;;9.70;8.70;;;;;;;12.51;91.20;101158.13;692353;28;1314;-51
2021/09/13 00:55:15;;;;;;;10.00;8.30;;;;;;;12.63;90.47;101158.06;692552;28;1103;-55
2021/09/13 00:55:37;;;;;;;11.52;8.75;;;;;;;12.65;90.50;101163.28;692158;28;1834;-56
2021/09/13 00:55:59;;;;;;;11.60;8.73;;;;;;;12.58;91.28;101160.69;691694;28;4173;-54
2021/09/13 00:56:19;;;;;;;13.48;8.77;;;;;;;12.53;91.66;101158.97;692369;28;1333;-55
2021/09/13 00:56:42;;;;;;;13.97;9.13;;;;;;;12.42;91.62;101154.66;694659;28;1453;-56
2021/09/13 00:57:04;;;;;;;9.60;8.68;;;;;;;12.40;91.33;101160.78;694230;28;4484;-53
2021/09/13 00:57:25;;;;;;;9.95;8.95;;;;;;;12.41;91.63;101159.91;694731;28;1083;-52
2021/09/13 00:57:48;;;;;;;10.77;9.23;;;;;;;12.44;91.28;101157.28;694653;28;1256;-53
2021/09/13 00:58:09;;;;;;;12.05;9.38;;;;;;;12.42;91.76;101159.91;692270;28;1088;-54
2021/09/13 00:58:30;;;;;;;10.95;9.77;;;;;;;12.41;91.72;101154.69;689541;28;1918;-51
2021/09/13 00:58:52;;;;;;;11.07;9.90;;;;;;;12.37;92.75;101151.19;689858;28;3131;-53
2021/09/13 00:59:12;;;;;;;11.27;9.90;;;;;;;12.29;92.76;101150.34;692047;28;3636;-53
2021/09/13 00:59:33;;;;;;;11.02;9.63;;;;;;;12.23;92.37;101156.47;688806;28;1283;-52
2021/09/13 00:59:54;;;;;;;10.20;9.23;;;;;;;12.22;92.21;101152.09;689672;28;4416;-52
2021/09/13 01:00:15;;;;;;;10.55;9.48;;;;;;;12.22;92.58;101153.88;692037;28;1163;-53
2021/09/13 01:00:36;;;;;;;10.90;9.80;;;;;;;12.19;92.81;101149.50;693732;28;1259;-53
2021/09/13 01:00:56;;;;;;;11.75;9.98;;;;;;;12.17;93.35;101156.53;692308;28;2128;-55
2021/09/13 01:01:17;;;;;;;12.43;9.85;;;;;;;12.18;93.28;101150.38;691140;28;1196;-53
2021/09/13 01:01:38;;;;;;;11.53;10.10;;;;;;;12.17;93.05;101153.91;695027;28;1108;-53
2021/09/13 01:01:58;;;;;;;11.52;10.43;;;;;;;12.15;93.49;101155.63;695318;28;1362;-52
2021/09/13 01:02:19;;;;;;;12.43;10.60;;;;;;;12.14;92.89;101153.88;697753;28;3549;-54
2021/09/13 01:02:39;;;;;;;11.57;10.37;;;;;;;12.10;93.58;101149.53;694561;28;3956;-54
2021/09/13 01:03:00;;;;;;;11.60;10.20;;;;;;;12.07;92.86;101144.31;696919;28;4464;-55
2021/09/13 01:03:20;;;;;;;11.60;9.93;;;;;;;12.07;92.97;101153.06;697247;28;1114;-54
2021/09/13 01:03:41;;;;;;;11.48;10.27;;;;;;;12.12;92.72;101153.03;689511;28;1922;-55
2021/09/13 01:04:01;;;;;;;10.73;9.63;;;;;;;12.21;92.44;101150.41;693940;28;1100;-53
2021/09/13 01:04:22;;;;;;;10.60;9.47;;;;;;;12.33;91.68;101157.31;694612;28;1422;-53
2021/09/13 01:04:42;;;;;;;11.75;9.70;;;;;;;12.36;91.33;101151.19;693816;28;1026;-55
2021/09/13 01:05:03;;;;;;;10.93;9.60;;;;;;;12.38;91.38;101146.84;694331;28;1103;-55
2021/09/13 01:05:24;;;;;;;10.82;9.52;;;;;;;12.36;91.46;101152.06;693035;28;1195;-55
2021/09/13 01:05:44;;;;;;;10.40;9.40;;;;;;;12.36;91.55;101154.69;693940;28;1543;-53
2021/09/13 01:06:05;;;;;;;10.75;9.65;;;;;;;12.35;91.45;101147.72;694660;28;4486;-55
2021/09/13 01:06:26;;;;;;;10.95;9.77;;;;;;;12.37;91.90;101150.31;692870;28;1492;-52
2021/09/13 01:06:46;;;;;;;11.17;9.70;;;;;;;12.38;91.58;101149.44;693036;28;1554;-55
2021/09/13 01:07:07;;;;;;;10.57;9.37;;;;;;;12.39;92.13;101151.16;694079;28;1185;-56
2021/09/13 01:07:30;;;;;;;12.82;9.63;;;;;;;12.38;92.06;101154.69;691989;28;2781;-53
2021/09/13 01:07:51;;;;;;;11.15;9.80;;;;;;;12.35;92.21;101155.56;690315;28;1425;-55
2021/09/13 01:08:12;;;;;;;11.73;10.07;;;;;;;12.26;92.54;101152.97;690794;28;1099;-55
2021/09/13 01:08:32;;;;;;;12.70;10.52;;;;;;;12.16;92.92;101156.53;692045;28;1233;-55
2021/09/13 01:08:54;;;;;;;11.43;10.20;;;;;;;12.13;92.71;101154.78;691190;28;4638;-53
2021/09/13 01:09:15;;;;;;;12.18;10.05;;;;;;;12.19;92.13;101152.13;691993;28;1073;-56
2021/09/13 01:09:36;;;;;;;11.75;9.50;;;;;;;12.28;91.87;101156.50;693117;28;2071;-55
2021/09/13 01:09:59;;;;;;;12.63;8.82;;;;;;;12.43;91.12;101155.53;694381;28;1368;-54
2021/09/13 01:10:21;;;;;;;11.32;8.75;;;;;;;12.56;89.98;101151.13;695040;28;1129;-52
2021/09/13 01:10:41;;;;;;;10.93;9.57;;;;;;;12.55;90.56;101152.84;696618;28;1126;-54
2021/09/13 01:11:02;;;;;;;10.63;9.23;;;;;;;12.57;90.53;101150.22;697762;28;1316;-55
2021/09/13 01:11:23;;;;;;;10.27;8.88;;;;;;;12.59;89.87;101161.59;697542;28;1118;-54
2021/09/13 01:11:44;;;;;;;10.63;8.98;;;;;;;12.59;90.23;101154.56;695349;28;1404;-52
2021/09/13 01:12:08;;;;;;;10.25;9.00;;;;;;;12.62;89.40;101156.31;693287;28;4561;-55
2021/09/13 01:12:30;;;;;;;12.52;9.32;;;;;;;12.71;89.19;101153.66;694589;28;1055;-54
2021/09/13 01:12:51;;;;;;;10.05;8.93;;;;;;;12.83;88.95;101152.69;692743;28;4152;-57
2021/09/13 01:13:11;;;;;;;9.63;8.63;;;;;;;12.93;88.30;101149.13;693933;28;1269;-56
2021/09/13 01:13:32;;;;;;;9.83;8.50;;;;;;;13.04;87.43;101151.69;691688;28;1230;-52
2021/09/13 01:13:52;;;;;;;9.98;8.30;;;;;;;13.11;87.20;101156.00;693405;28;1106;-52
2021/09/13 01:14:16;;;;;;;9.93;8.68;;;;;;;13.17;86.68;101164.72;691277;28;1601;-51
2021/09/13 01:14:39;;;;;;;10.25;8.73;;;;;;;13.13;88.36;101148.13;688291;28;1443;-52
2021/09/13 01:14:59;;;;;;;11.30;9.23;;;;;;;13.03;88.79;101152.56;690276;28;4554;-51
2021/09/13 01:15:20;;;;;;;11.05;9.63;;;;;;;12.92;89.14;101152.63;692701;28;1852;-54
2021/09/13 01:15:41;;;;;;;10.07;9.07;;;;;;;12.82;89.89;101164.09;691390;28;1248;-54
2021/09/13 01:16:05;;;;;;;10.50;9.40;;;;;;;12.71;90.29;101164.13;688282;28;3440;-51
2021/09/13 01:16:26;;;;;;;12.52;9.93;;;;;;;12.64;90.86;101156.31;684604;28;1276;-56
2021/09/13 01:16:46;;;;;;;11.27;10.07;;;;;;;12.59;91.19;101151.94;687145;28;1158;-54
2021/09/13 01:17:09;;;;;;;11.40;9.77;;;;;;;12.55;91.19;101159.84;686589;28;1463;-53
2021/09/13 01:17:32;;;;;;;10.68;9.60;;;;;;;12.51;90.78;101158.97;687706;28;1239;-54
2021/09/13 01:17:52;;;;;;;10.40;9.30;;;;;;;12.47;91.23;101157.25;690482;28;4633;-52
2021/09/13 01:18:13;;;;;;;10.90;9.50;;;;;;;12.46;91.43;101160.78;695645;28;1095;-56
2021/09/13 01:18:33;;;;;;;11.32;9.70;;;;;;;12.41;91.75;101157.31;694682;28;1147;-51
2021/09/13 01:18:54;;;;;;;11.77;9.90;;;;;;;12.36;92.17;101161.69;692247;28;1224;-56
2021/09/13 01:19:14;;;;;;;10.93;9.83;;;;;;;12.27;92.32;101166.09;694145;28;3169;-56
2021/09/13 01:19:37;;;;;;;12.00;10.20;;;;;;;12.23;92.99;101164.34;691564;28;1394;-54
2021/09/13 01:19:58;;;;;;;11.30;9.93;;;;;;;12.20;92.79;101164.38;689291;28;1390;-55
2021/09/13 01:20:18;;;;;;;11.17;9.97;;;;;;;12.17;92.63;101160.88;689381;28;1031;-52
2021/09/13 01:20:44;;;;;;;11.65;10.45;;;;;;;12.16;93.45;101173.13;690417;28;1523;-53
2021/09/13 01:21:05;;;;;;;11.85;10.65;;;;;;;12.14;93.41;101167.00;693070;28;4551;-55
2021/09/13 01:21:27;;;;;;;11.73;10.53;;;;;;;12.14;92.85;101159.13;692212;28;1044;-56
2021/09/13 01:21:48;;;;;;;12.82;10.50;;;;;;;12.16;92.49;101162.63;688807;28;1255;-53
2021/09/13 01:22:12;;;;;;;14.00;10.60;;;;;;;12.19;92.68;101165.22;692279;28;1187;-52
2021/09/13 01:22:49;;;;;;;12.45;10.02;;;;;;;12.22;92.60;101166.97;696800;28;1317;-52
2021/09/13 01:23:25;;;;;;;11.40;9.75;;;;;;;12.29;91.63;101157.34;696377;28;1993;-51
2021/09/13 01:23:49;;;;;;;11.25;10.05;;;;;;;12.27;92.08;101158.22;695538;28;4604;-52
2021/09/13 01:24:10;;;;;;;11.23;10.03;;;;;;;12.26;92.08;101156.47;697578;28;1178;-53
2021/09/13 01:24:33;;;;;;;12.25;10.40;;;;;;;12.24;92.27;101160.84;694205;28;2480;-56
2021/09/13 01:24:55;;;;;;;11.77;9.93;;;;;;;12.21;92.44;101158.25;689484;28;1242;-54
2021/09/13 01:25:16;;;;;;;10.93;9.73;;;;;;;12.19;92.59;101157.38;692129;28;1198;-52
2021/09/13 01:25:37;;;;;;;11.07;9.97;;;;;;;12.18;92.69;101166.09;690846;28;3879;-56
2021/09/13 01:26:04;;;;;;;10.65;9.55;;;;;;;12.17;92.63;101159.13;692403;28;1467;-52
2021/09/13 01:26:25;;;;;;;10.88;9.43;;;;;;;12.19;92.38;101159.13;693712;28;1450;-53
2021/09/13 01:26:48;;;;;;;10.75;9.45;;;;;;;12.26;91.87;101158.22;693256;28;1510;-53
2021/09/13 01:27:13;;;;;;;10.70;9.60;;;;;;;12.23;92.73;101158.25;691699;28;5058;-53
2021/09/13 01:27:36;;;;;;;11.00;9.90;;;;;;;12.18;92.65;101160.88;694478;28;1633;-56
2021/09/13 01:27:58;;;;;;;11.75;10.25;;;;;;;12.15;93.17;101160.88;693345;28;1729;-52
2021/09/13 01:28:22;;;;;;;12.65;10.90;;;;;;;12.11;93.46;101158.28;693953;28;1575;-51
2021/09/13 01:28:42;;;;;;;12.18;10.80;;;;;;;12.07;93.28;101168.78;692620;28;3128;-51
2021/09/13 01:29:06;;;;;;;11.73;10.52;;;;;;;12.07;92.46;101163.53;691591;28;4187;-55
2021/09/13 01:29:29;;;;;;;11.05;9.93;;;;;;;12.11;92.52;101164.38;689159;28;1389;-51
2021/09/13 01:29:49;;;;;;;12.27;10.00;;;;;;;12.09;92.52;101160.91;688531;28;4543;-51
2021/09/13 01:30:11;;;;;;;12.75;10.27;;;;;;;12.04;93.06;101157.44;688696;28;1302;-56
2021/09/13 01:30:32;;;;;;;12.10;10.20;;;;;;;11.98;93.62;101157.47;690355;28;1216;-52
2021/09/13 01:30:53;;;;;;;12.02;10.60;;;;;;;11.91;93.60;101157.44;692282;28;1288;-54
2021/09/13 01:31:14;;;;;;;11.63;10.48;;;;;;;11.87;93.89;101160.06;693984;28;1283;-53
2021/09/13 01:31:37;;;;;;;11.63;10.40;;;;;;;11.84;93.71;101157.47;694364;28;1306;-53
2021/09/13 01:31:58;;;;;;;11.82;10.52;;;;;;;11.88;93.73;101167.03;693336;28;1522;-52
2021/09/13 01:32:22;;;;;;;11.50;10.30;;;;;;;11.83;94.33;101159.19;688817;28;4202;-52
2021/09/13 01:32:50;;;;;;;11.82;10.60;;;;;;;11.80;93.93;101159.19;689780;28;4451;-52
2021/09/13 01:33:10;;;;;;;11.67;10.40;;;;;;;11.82;93.63;101161.81;693606;28;1509;-56
2021/09/13 01:33:32;;;;;;;11.75;9.95;;;;;;;11.76;93.88;101158.31;692384;28;1226;-54
2021/09/13 01:33:52;;;;;;;11.38;9.98;;;;;;;11.74;93.78;101154.84;692869;28;1159;-55
2021/09/13 01:34:20;;;;;;;11.73;10.32;;;;;;;11.73;94.16;101163.56;694188;28;1091;-55
2021/09/13 01:34:44;;;;;;;12.15;10.85;;;;;;;11.70;94.91;101162.69;691564;28;1135;-53
2021/09/13 01:35:05;;;;;;;12.32;10.90;;;;;;;11.69;94.60;101155.72;689000;28;1664;-56
2021/09/13 01:35:28;;;;;;;12.57;11.00;;;;;;;11.68;95.01;101159.22;690181;28;3438;-55
2021/09/13 01:35:50;;;;;;;12.10;10.90;;;;;;;11.66;95.07;101158.34;690475;28;6429;-53
2021/09/13 01:36:11;;;;;;;11.90;10.60;;;;;;;11.73;94.15;101157.47;691843;28;1530;-54
2021/09/13 01:36:32;;;;;;;11.45;10.20;;;;;;;11.81;93.83;101155.72;690363;28;1491;-56
2021/09/13 01:36:59;;;;;;;11.07;9.95;;;;;;;11.94;93.43;101156.59;688634;28;1483;-51
2021/09/13 01:37:20;;;;;;;11.00;9.77;;;;;;;11.97;93.47;101155.72;689401;28;1094;-53
2021/09/13 01:37:40;;;;;;;11.40;10.20;;;;;;;11.98;92.79;101149.59;694347;28;1119;-52
2021/09/13 01:38:06;;;;;;;11.60;10.40;;;;;;;11.96;93.38;101153.94;694632;28;1388;-52
2021/09/13 01:38:30;;;;;;;11.35;10.15;;;;;;;11.92;93.82;101153.94;691718;28;2861;-57
2021/09/13 01:38:51;;;;;;;12.02;10.32;;;;;;;11.90;93.63;101155.66;692972;28;5500;-54
2021/09/13 01:39:11;;;;;;;12.50;10.47;;;;;;;11.88;93.48;101159.16;694373;28;1402;-54
2021/09/13 01:39:32;;;;;;;11.63;10.40;;;;;;;11.83;93.61;101153.94;690327;28;1402;-52
2021/09/13 01:39:52;;;;;;;11.65;10.43;;;;;;;11.77;93.53;101148.75;687024;28;1238;-52
2021/09/13 01:40:13;;;;;;;11.90;10.60;;;;;;;11.73;94.34;101157.47;689227;28;1179;-53
2021/09/13 01:40:33;;;;;;;11.70;10.50;;;;;;;11.68;94.39;101154.84;689987;28;1425;-54
2021/09/13 01:40:54;;;;;;;12.73;11.43;;;;;;;11.67;94.53;101147.88;689228;28;1323;-53